San Francisco, CA

16:17 PST le 10 décembre 2016 (GMT -0800)
Excelsior | | Change Station

Alt. 0 ft 37.72 °N, 122.44 °W | Updated 1 minute ago

Couvert
Couvert
56.7 ° F
Paraît 56.7 ° F
N
5.0
Vent Variable Vent de Ouest
Gusts 9.9 mph

Aujourd'hui
Haut(e) -- | Bas -- ° F
--% Risque de précip.
Hier
Haut(e) -- | Bas -- ° F
Precip. -- pouce
Pression 30.06 pouce
Visibilité 10.0 Miles terrestres
Nuages Peu 1000 ft
Nuageux 1600 ft
Couvert 2300 ft
Point de rosée 57 ° F
Humidité 100%
Précipitations 0.58 pouce
Profondeur de la couche neigeuse Non disponible.
7:14 AM 4:51 PM
Lune gibbeuse croissante, 87% visible
METAR KSFO 102356Z 25009KT 10SM -RA FEW010 BKN016 OVC023 15/13 A3006 RMK AO2 SLP177 P0002 60049 T01500133 10161 20150 53002 $
Pression 30.06 pouce
Visibilité 10.0 Miles terrestres
Nuages Peu 1000 ft
Nuageux 1600 ft
Couvert 2300 ft
Point de rosée 57 ° F
Humidité 100%
Précipitations 0.58 pouce
Profondeur de la couche neigeuse Non disponible.
7:14 AM 4:51 PM
Lune gibbeuse croissante, 87% visible
METAR KSFO 102356Z 25009KT 10SM -RA FEW010 BKN016 OVC023 15/13 A3006 RMK AO2 SLP177 P0002 60049 T01500133 10161 20150 53002 $

10-Day Weather Forecast

Almanac

Astronomie

Dec. 10, 2016 Lever Coucher
Temps réel
Crépuscule civil
Crépuscule nautique
Crépuscule astronomique
Lune
Durée de lumière visible
Longueur du jour
Tomorrow will be .
, % of the Moon is Illuminated

Extrêmes aujourd'hui

State Highs State Lows

Community

WunderPhotos

Upload Photos

1,956,682 Photos téléchargées !

WunderBlog® & News

Nearby

Qualité de l'air

  Qualité de l'air Indice de la qualité de l'air Polluant
Not available.

Épaisseur de neige

Station Depth Altitude

Activité sismique

Ville Distance Mag. Time & Date
Minimum magnitude displayed is 2.5.

Températures des eaux côtières

Lieu Température

Stations

Stations météo à proximité

Emplacement de la station Température Refroidissement éolien Point de rosée Humidité Vent Precip. Alt. Mise à jour Type
                   

Watches & Warnings

There are currently no watches in effect.